Portada
Imágenes satélite Pronóstico 15 díasClimaPredicción Marítima Ciclones Rayo AeropuertosFAQ Noticias Acerca
El tiempo : Europa África América del Norte América del Sur Asia Australia-Oceanía Otros
Idiomas Contacto

Madrid, España

Barajas

latitud: 40-27N, longitud: 003-33W, altitud: 609 m


METAR: LEMD 251800Z 34003KT CAVOK 23/06 Q1021 NOSIG
TAF: LEMD 251700Z 2518/2624 VRB04KT CAVOK TX26/2614Z TN10/2607Z

Hora: 20:11 (18:11 UTC)

Observación

El informe se hizo hace 11 minutos, a las 18:00 UTC
Viento 3 kt del norte-noroeste
Temperatura 23°C
Humedad 33%
Presión 1021 hPa
Visibilidad 10 km o más
sin nubes por debajo de 1500 m y sin presencia de cumulonimbus.

Cambiar las unidades

Pronóstico

El informe se hizo hace 1 hora y 11 minutos, a las 17:00 UTC
Pronóstico válido del 25 a las 18 UTC al 26 a las 24 UTC
Viento 4 kt con dirección variable
Visibilidad 10 km o más
sin nubes por debajo de 1500 m y sin presencia de cumulonimbus.
La información que se ofrece en estas páginas está sujeta a una cláusula de exención de responsabilidad
El tiempo : Europa África América del Norte América del Sur Asia Australia-Oceanía Otros
Imágenes satélite Pronóstico 15 díasClimaPredicción Marítima Ciclones Rayo AeropuertosFAQ Idiomas Contacto Noticias Acerca